Time;durP1;ratioP1;P1;durP2;ratioP2;P2;SDS_P1;SDS_P2;PMS_P1;PMS_P2;Temp;Humidity;BMP_temperature;BMP_pressure;BME280_temperature;BME280_humidity;BME280_pressure;Samples;Min_cycle;Max_cycle;Signal;HPM_P1;HPM_P2
2023/05/05 00:02:06;;;;;;;0.82;0.80;;;18.90;55.20;;;;;;5041589;28;45314;-71
2023/05/05 00:04:34;;;;;;;1.15;0.95;;;18.90;55.30;;;;;;5041550;27;45286;-72
2023/05/05 00:07:01;;;;;;;0.70;0.70;;;18.90;55.30;;;;;;5040962;28;47777;-72
2023/05/05 00:09:28;;;;;;;1.33;1.13;;;18.90;55.30;;;;;;5041666;28;45374;-71
2023/05/05 00:11:55;;;;;;;1.23;0.90;;;18.90;55.20;;;;;;5041589;28;45335;-71
2023/05/05 00:14:22;;;;;;;0.80;0.80;;;18.90;55.20;;;;;;5041592;28;45347;-71
2023/05/05 00:16:48;;;;;;;1.05;0.85;;;18.90;55.20;;;;;;5041288;28;47121;-71
2023/05/05 00:19:15;;;;;;;1.38;1.00;;;19.00;55.30;;;;;;5041130;28;45454;-71
2023/05/05 00:21:43;;;;;;;1.30;1.00;;;19.00;55.30;;;;;;5041630;28;45260;-71
2023/05/05 00:24:10;;;;;;;1.25;1.00;;;18.90;55.20;;;;;;5041127;28;45332;-71
2023/05/05 00:26:37;;;;;;;1.80;0.93;;;18.90;55.40;;;;;;5040904;28;46724;-71
2023/05/05 00:29:04;;;;;;;1.50;1.00;;;18.90;55.50;;;;;;5041531;28;45184;-70
2023/05/05 00:31:30;;;;;;;0.98;0.88;;;18.90;55.40;;;;;;5041304;28;45293;-71
2023/05/05 00:33:57;;;;;;;1.42;1.17;;;18.90;55.50;;;;;;5041784;28;45166;-71
2023/05/05 00:36:24;;;;;;;1.90;1.15;;;18.90;55.60;;;;;;5040806;28;48271;-71
2023/05/05 00:38:52;;;;;;;1.75;1.25;;;18.90;55.60;;;;;;5041015;28;45648;-71
2023/05/05 00:41:19;;;;;;;0.98;0.85;;;18.90;55.60;;;;;;5041433;28;45279;-71
2023/05/05 00:43:46;;;;;;;2.08;1.02;;;18.90;55.60;;;;;;5041023;28;45170;-71
2023/05/05 00:46:22;;;;;;;1.20;1.10;;;18.90;55.90;;;;;;5039540;28;48275;-71
2023/05/05 00:48:50;;;;;;;1.10;1.00;;;18.90;55.90;;;;;;5041176;28;45365;-71
2023/05/05 00:51:17;;;;;;;1.00;0.82;;;18.90;55.90;;;;;;5040825;28;45345;-71
2023/05/05 00:53:44;;;;;;;0.80;0.80;;;18.90;55.90;;;;;;5040758;28;45568;-71
2023/05/05 00:56:14;;;;;;;1.25;0.93;;;18.90;55.90;;;;;;5040620;28;46605;-71
2023/05/05 00:58:42;;;;;;;1.40;0.98;;;18.90;55.90;;;;;;5040949;28;45574;-71
2023/05/05 01:01:09;;;;;;;1.10;1.00;;;19.00;56.00;;;;;;5040828;28;45367;-71
2023/05/05 01:03:37;;;;;;;2.15;1.30;;;18.90;55.90;;;;;;5040786;28;45584;-71
2023/05/05 01:06:15;;;;;;;1.70;1.10;;;18.90;55.90;;;;;;5040215;28;46585;-71
2023/05/05 01:08:51;;;;;;;1.48;1.02;;;18.90;56.00;;;;;;5040751;28;45407;-71
2023/05/05 01:11:25;;;;;;;1.60;1.00;;;18.90;56.10;;;;;;5040758;28;45418;-71
2023/05/05 01:13:59;;;;;;;1.20;1.10;;;18.90;56.10;;;;;;5040587;28;45635;-71
2023/05/05 01:16:29;;;;;;;1.40;1.00;;;19.00;56.30;;;;;;5040503;28;46118;-71
2023/05/05 01:19:00;;;;;;;1.00;0.80;;;18.90;56.20;;;;;;5040398;28;45286;-71
2023/05/05 01:21:32;;;;;;;1.65;1.00;;;18.90;56.50;;;;;;5040877;28;45500;-71
2023/05/05 01:24:32;;;;;;;1.58;1.15;;;18.90;56.60;;;;;;5040502;28;45530;-71
2023/05/05 01:27:17;;;;;;;1.05;0.95;;;18.90;56.60;;;;;;5026064;28;45638;-72
2023/05/05 01:30:03;;;;;;;1.77;1.05;;;18.90;56.60;;;;;;5040639;28;45367;-71
2023/05/05 01:32:35;;;;;;;1.92;0.90;;;18.90;56.60;;;;;;5040415;28;45189;-72
2023/05/05 01:35:04;;;;;;;1.45;1.35;;;18.90;56.70;;;;;;5040120;28;45485;-71
2023/05/05 01:37:38;;;;;;;1.00;0.90;;;18.90;57.90;;;;;;5040172;28;47439;-71
2023/05/05 01:40:08;;;;;;;1.33;0.90;;;18.90;56.70;;;;;;5040198;28;45186;-71
2023/05/05 01:42:36;;;;;;;1.98;1.20;;;18.90;56.80;;;;;;5040462;28;45506;-71
2023/05/05 01:45:06;;;;;;;2.17;1.00;;;19.00;56.80;;;;;;5039569;28;45315;-71
2023/05/05 01:47:37;;;;;;;1.02;0.93;;;18.90;56.80;;;;;;5040141;28;46369;-71
2023/05/05 01:50:06;;;;;;;1.65;1.05;;;19.00;57.00;;;;;;5039393;28;45334;-71
2023/05/05 01:52:34;;;;;;;1.30;1.13;;;18.90;56.90;;;;;;5039992;28;45186;-71
2023/05/05 01:55:03;;;;;;;1.45;1.10;;;18.90;57.10;;;;;;5039842;28;45551;-72
2023/05/05 01:57:31;;;;;;;1.35;1.08;;;18.90;57.20;;;;;;5042727;28;47117;-72
2023/05/05 02:00:00;;;;;;;1.00;0.90;;;18.90;57.40;;;;;;5043148;28;45395;-71
2023/05/05 02:02:29;;;;;;;3.22;1.17;;;18.90;57.60;;;;;;5043010;28;45480;-71
2023/05/05 02:04:58;;;;;;;1.45;1.08;;;18.90;57.60;;;;;;5043472;27;45373;-71
2023/05/05 02:07:27;;;;;;;1.63;1.20;;;18.90;57.70;;;;;;5043228;28;45466;-71
2023/05/05 02:09:55;;;;;;;1.88;1.20;;;18.90;57.80;;;;;;5043250;28;45280;-71
2023/05/05 02:12:22;;;;;;;1.42;1.20;;;18.90;57.80;;;;;;5043094;28;45272;-72
2023/05/05 02:14:52;;;;;;;1.52;1.02;;;18.90;57.80;;;;;;5042643;28;45438;-72
2023/05/05 02:17:21;;;;;;;1.30;0.73;;;18.90;58.10;;;;;;5042642;28;46408;-71
2023/05/05 02:19:51;;;;;;;1.83;1.30;;;18.90;58.20;;;;;;5043054;28;45208;-71
2023/05/05 02:22:19;;;;;;;1.90;1.30;;;18.90;58.40;;;;;;5042854;28;45337;-71
2023/05/05 02:24:46;;;;;;;1.77;1.20;;;18.90;58.20;;;;;;5042540;28;45271;-71
2023/05/05 02:27:17;;;;;;;1.45;1.23;;;18.90;58.40;;;;;;5042543;28;46113;-71
2023/05/05 02:29:48;;;;;;;1.50;1.20;;;18.90;58.30;;;;;;5042848;28;45745;-71
2023/05/05 02:32:21;;;;;;;1.40;1.20;;;19.00;58.60;;;;;;5042763;28;45154;-71
2023/05/05 02:34:50;;;;;;;2.92;1.48;;;19.00;58.80;;;;;;5043062;28;45262;-71
2023/05/05 02:37:23;;;;;;;1.83;1.40;;;19.00;58.80;;;;;;5042221;28;47704;-71
2023/05/05 02:39:57;;;;;;;1.60;1.10;;;18.90;59.00;;;;;;5042755;28;45448;-71
2023/05/05 02:42:27;;;;;;;1.33;1.20;;;18.90;59.00;;;;;;5042874;28;45381;-71
2023/05/05 02:44:57;;;;;;;2.35;1.23;;;18.90;59.10;;;;;;5042335;28;45720;-72
2023/05/05 02:47:28;;;;;;;1.30;1.17;;;18.90;59.20;;;;;;5041568;28;47697;-71
2023/05/05 02:49:55;;;;;;;3.40;1.40;;;18.90;58.90;;;;;;5042706;28;45168;-71
2023/05/05 02:52:23;;;;;;;1.70;1.30;;;18.90;58.90;;;;;;5042692;28;45234;-71
2023/05/05 02:54:50;;;;;;;1.60;1.30;;;18.90;59.10;;;;;;5042355;28;45628;-71
2023/05/05 02:57:19;;;;;;;2.50;1.48;;;18.90;59.30;;;;;;5041557;28;46290;-71
2023/05/05 02:59:51;;;;;;;1.60;1.23;;;18.90;59.20;;;;;;5042215;28;45352;-70
2023/05/05 03:02:27;;;;;;;1.20;1.10;;;18.90;59.40;;;;;;5039728;28;45292;-71
2023/05/05 03:05:04;;;;;;;1.20;1.10;;;18.90;59.50;;;;;;5042442;28;45426;-71
2023/05/05 03:07:38;;;;;;;2.45;1.50;;;18.90;59.50;;;;;;5040844;28;45298;-71
2023/05/05 03:10:09;;;;;;;2.28;1.40;;;18.90;59.50;;;;;;5042373;28;45323;-71
2023/05/05 03:12:39;;;;;;;1.80;1.48;;;18.90;59.70;;;;;;5034467;28;45481;-71
2023/05/05 03:15:09;;;;;;;1.63;1.30;;;18.90;59.60;;;;;;5039193;28;45368;-71
2023/05/05 03:17:36;;;;;;;1.58;1.40;;;18.90;59.30;;;;;;5042039;27;46708;-71
2023/05/05 03:20:04;;;;;;;1.60;1.20;;;18.90;59.60;;;;;;5042561;28;46432;-71
2023/05/05 03:22:35;;;;;;;2.63;1.50;;;18.90;59.90;;;;;;5042135;28;45222;-71
2023/05/05 03:25:02;;;;;;;1.52;1.42;;;18.90;60.00;;;;;;5041886;28;45418;-71
2023/05/05 03:27:30;;;;;;;2.45;1.77;;;18.90;60.00;;;;;;5042498;28;47385;-72
2023/05/05 03:29:56;;;;;;;1.30;1.20;;;18.90;60.10;;;;;;5042082;28;45865;-71
2023/05/05 03:32:24;;;;;;;1.65;1.33;;;18.90;60.10;;;;;;5041952;28;45274;-71
2023/05/05 03:34:50;;;;;;;1.20;1.10;;;18.90;60.20;;;;;;5041860;28;45245;-71
2023/05/05 03:37:17;;;;;;;1.65;1.50;;;18.90;60.20;;;;;;5041868;28;47202;-71
2023/05/05 03:39:45;;;;;;;1.48;1.17;;;18.90;60.20;;;;;;5041890;28;45993;-71
2023/05/05 03:42:12;;;;;;;1.65;1.15;;;18.90;60.40;;;;;;5041919;28;45252;-71
2023/05/05 03:44:39;;;;;;;1.85;1.45;;;18.90;60.20;;;;;;5021968;28;45465;-71
2023/05/05 03:47:06;;;;;;;1.63;1.33;;;18.90;60.50;;;;;;5036910;28;47224;-71
2023/05/05 03:49:33;;;;;;;1.30;1.20;;;18.90;60.50;;;;;;5041651;28;45329;-71
2023/05/05 03:51:59;;;;;;;1.60;1.30;;;18.90;60.40;;;;;;5040874;28;45430;-71
2023/05/05 03:54:26;;;;;;;2.47;1.30;;;18.90;60.50;;;;;;5041736;28;45555;-71
2023/05/05 03:56:55;;;;;;;2.58;1.50;;;18.90;60.40;;;;;;5041404;28;46326;-71
2023/05/05 03:59:21;;;;;;;1.60;1.40;;;18.90;60.40;;;;;;5041443;28;46021;-72
2023/05/05 04:01:48;;;;;;;2.40;1.48;;;18.90;60.50;;;;;;5038849;28;45485;-71
2023/05/05 04:04:15;;;;;;;3.08;1.52;;;18.90;60.70;;;;;;5041732;28;45324;-71
2023/05/05 04:06:42;;;;;;;2.35;1.50;;;18.90;60.80;;;;;;5041555;28;46354;-71
2023/05/05 04:09:10;;;;;;;1.80;1.40;;;18.90;60.80;;;;;;5041776;28;45298;-71
2023/05/05 04:11:37;;;;;;;2.42;1.58;;;18.90;60.80;;;;;;5041839;28;45252;-71
2023/05/05 04:14:05;;;;;;;1.60;1.40;;;18.90;61.00;;;;;;5041831;28;45197;-71
2023/05/05 04:16:32;;;;;;;1.75;1.40;;;18.90;61.10;;;;;;5041181;28;46065;-71
2023/05/05 04:18:59;;;;;;;2.83;1.77;;;18.90;61.10;;;;;;5041045;28;45409;-71
2023/05/05 04:21:26;;;;;;;1.60;1.48;;;18.90;61.20;;;;;;5041589;28;45437;-71
2023/05/05 04:23:52;;;;;;;2.00;1.70;;;18.90;61.20;;;;;;5041576;28;45277;-71
2023/05/05 04:26:19;;;;;;;2.45;1.50;;;18.90;61.30;;;;;;5041157;28;45259;-71
2023/05/05 04:28:46;;;;;;;3.17;1.95;;;18.90;61.20;;;;;;5041027;28;45275;-71
2023/05/05 04:31:14;;;;;;;2.17;1.70;;;18.90;61.30;;;;;;5041453;28;45190;-71
2023/05/05 04:33:41;;;;;;;2.65;1.90;;;18.90;61.40;;;;;;5041169;28;45346;-71
2023/05/05 04:36:08;;;;;;;4.07;1.85;;;18.90;61.40;;;;;;5040757;28;46070;-71
2023/05/05 04:38:35;;;;;;;2.95;1.55;;;18.90;61.30;;;;;;5041141;28;45407;-71
2023/05/05 04:41:05;;;;;;;2.20;1.67;;;18.90;61.30;;;;;;5041238;28;45343;-71
2023/05/05 04:43:31;;;;;;;2.67;1.70;;;18.90;61.20;;;;;;5041318;28;45186;-71
2023/05/05 04:45:58;;;;;;;2.10;1.45;;;18.90;61.30;;;;;;5039815;27;46447;-71
2023/05/05 04:48:26;;;;;;;3.33;1.70;;;18.90;61.50;;;;;;5040610;28;45306;-71
2023/05/05 04:50:53;;;;;;;1.90;1.63;;;18.90;61.60;;;;;;5038929;28;45410;-71
2023/05/05 04:53:20;;;;;;;1.95;1.50;;;18.90;61.50;;;;;;5040723;28;45693;-71
2023/05/05 04:55:46;;;;;;;2.25;1.80;;;18.90;61.60;;;;;;5040283;28;46596;-71
2023/05/05 04:58:13;;;;;;;3.38;1.75;;;18.90;61.70;;;;;;5040610;28;45407;-71
2023/05/05 05:00:40;;;;;;;3.53;2.00;;;18.90;61.60;;;;;;5040940;28;45314;-71
2023/05/05 05:03:07;;;;;;;2.22;1.55;;;18.90;61.60;;;;;;5041274;28;45122;-71
2023/05/05 05:05:35;;;;;;;1.63;1.52;;;18.90;61.60;;;;;;5040381;28;47876;-72
2023/05/05 05:08:01;;;;;;;3.40;1.70;;;18.90;61.90;;;;;;5039913;28;45436;-72
2023/05/05 05:10:28;;;;;;;1.83;1.63;;;18.90;61.80;;;;;;5040863;28;45383;-71
2023/05/05 05:12:55;;;;;;;2.80;1.70;;;18.90;61.80;;;;;;5040494;28;45623;-71
2023/05/05 05:15:22;;;;;;;3.30;1.63;;;18.90;61.80;;;;;;5040090;28;46536;-71
2023/05/05 05:17:49;;;;;;;2.13;1.40;;;18.90;61.90;;;;;;5040577;28;45606;-71
2023/05/05 05:20:15;;;;;;;2.50;1.63;;;18.90;61.90;;;;;;5040447;28;45337;-71
2023/05/05 05:22:43;;;;;;;2.30;1.70;;;18.90;61.60;;;;;;5040838;28;45282;-71
2023/05/05 05:25:10;;;;;;;2.10;1.52;;;18.90;61.70;;;;;;5039970;28;47412;-71
2023/05/05 05:27:37;;;;;;;2.17;1.70;;;19.00;61.60;;;;;;5039968;28;46184;-71
2023/05/05 05:30:04;;;;;;;3.58;1.95;;;18.90;61.50;;;;;;5040389;28;45344;-71
2023/05/05 05:32:31;;;;;;;3.55;1.90;;;19.00;61.90;;;;;;5043379;28;45216;-71
2023/05/05 05:34:58;;;;;;;2.08;1.70;;;19.00;61.90;;;;;;5043068;28;48542;-71
2023/05/05 05:37:28;;;;;;;2.92;1.98;;;18.90;62.10;;;;;;5043483;27;45399;-72
2023/05/05 05:39:56;;;;;;;2.05;1.60;;;18.90;62.10;;;;;;5043698;28;45224;-72
2023/05/05 05:42:23;;;;;;;2.60;1.60;;;18.90;62.20;;;;;;5043561;27;45654;-72
2023/05/05 05:44:50;;;;;;;2.28;1.70;;;18.90;62.20;;;;;;5043493;28;47105;-71
2023/05/05 05:47:17;;;;;;;1.85;1.65;;;18.90;62.20;;;;;;5042531;27;45472;-71
2023/05/05 05:49:43;;;;;;;2.28;1.75;;;18.90;62.30;;;;;;5043745;27;45298;-71
2023/05/05 05:52:10;;;;;;;3.30;1.90;;;18.90;62.30;;;;;;5042265;28;45563;-71
2023/05/05 05:54:37;;;;;;;2.72;1.60;;;18.90;62.20;;;;;;5043311;28;45403;-71
2023/05/05 05:57:06;;;;;;;2.17;1.70;;;18.90;62.20;;;;;;5043390;28;45292;-71
2023/05/05 05:59:33;;;;;;;2.40;1.60;;;18.90;62.20;;;;;;5043444;28;45338;-72
2023/05/05 06:02:00;;;;;;;3.53;1.42;;;18.90;62.30;;;;;;5043499;28;45141;-71
2023/05/05 06:04:26;;;;;;;1.90;1.70;;;18.90;62.10;;;;;;5043059;28;47660;-71
2023/05/05 06:06:53;;;;;;;1.92;1.63;;;18.90;62.10;;;;;;5042916;28;45383;-71
2023/05/05 06:09:20;;;;;;;1.77;1.58;;;19.00;62.10;;;;;;5042994;27;45378;-71
2023/05/05 06:11:47;;;;;;;2.58;1.80;;;19.00;62.10;;;;;;5043137;28;45576;-71
2023/05/05 06:14:15;;;;;;;3.00;1.67;;;19.00;62.00;;;;;;5042810;27;46667;-71
2023/05/05 06:16:43;;;;;;;2.08;1.58;;;19.00;62.10;;;;;;5042792;27;45273;-71
2023/05/05 06:19:10;;;;;;;2.55;1.90;;;19.00;62.30;;;;;;5042814;28;45346;-72
2023/05/05 06:21:37;;;;;;;2.05;1.45;;;19.00;62.30;;;;;;5042568;28;45337;-71
2023/05/05 06:24:04;;;;;;;3.30;1.98;;;19.00;62.40;;;;;;5042854;27;45453;-71
2023/05/05 06:26:31;;;;;;;2.08;1.88;;;18.90;63.50;;;;;;5042909;28;45280;-71
2023/05/05 06:28:58;;;;;;;2.30;1.83;;;18.90;62.50;;;;;;5043114;28;45466;-71
2023/05/05 06:31:26;;;;;;;2.13;1.50;;;18.90;62.60;;;;;;5042997;28;45550;-71
2023/05/05 06:33:53;;;;;;;3.50;2.20;;;18.90;62.80;;;;;;5042507;28;45269;-71
2023/05/05 06:36:19;;;;;;;1.98;1.75;;;19.00;62.90;;;;;;5042357;27;45352;-71
2023/05/05 06:38:46;;;;;;;2.30;1.58;;;18.90;62.60;;;;;;5043183;28;45277;-71
2023/05/05 06:41:13;;;;;;;2.88;1.70;;;18.90;62.80;;;;;;5042689;28;45562;-71
2023/05/05 06:43:41;;;;;;;1.83;1.60;;;18.90;62.70;;;;;;5042538;28;46536;-71
2023/05/05 06:46:08;;;;;;;2.08;1.45;;;19.00;63.00;;;;;;5041461;28;46032;-71
2023/05/05 06:48:36;;;;;;;2.45;1.70;;;19.00;62.80;;;;;;5034264;28;45218;-71
2023/05/05 06:51:03;;;;;;;2.05;1.67;;;19.00;62.60;;;;;;5042081;28;45657;-71
2023/05/05 06:53:30;;;;;;;2.30;1.70;;;19.00;62.70;;;;;;5042299;28;45337;-71
2023/05/05 06:55:57;;;;;;;2.72;1.95;;;19.00;62.60;;;;;;5041906;28;45198;-71
2023/05/05 06:58:24;;;;;;;1.85;1.58;;;19.00;62.70;;;;;;5042349;27;45198;-71
2023/05/05 07:00:50;;;;;;;2.10;1.63;;;19.00;62.60;;;;;;5042665;28;45556;-71
2023/05/05 07:03:17;;;;;;;3.90;1.67;;;19.00;62.60;;;;;;5042350;28;46978;-71
2023/05/05 07:05:45;;;;;;;1.98;1.58;;;19.00;62.90;;;;;;5042010;28;45467;-72
2023/05/05 07:08:13;;;;;;;2.10;1.55;;;19.00;63.10;;;;;;5042260;28;45279;-71
2023/05/05 07:10:39;;;;;;;1.90;1.52;;;19.00;63.20;;;;;;5042660;28;45173;-71
2023/05/05 07:13:06;;;;;;;3.40;2.00;;;19.00;63.30;;;;;;5042456;28;45230;-71
2023/05/05 07:15:33;;;;;;;3.78;1.90;;;19.00;63.40;;;;;;5041911;28;45471;-71
2023/05/05 07:18:00;;;;;;;2.35;1.80;;;19.00;63.50;;;;;;5042047;27;45424;-71
2023/05/05 07:20:27;;;;;;;3.00;1.75;;;19.00;63.40;;;;;;5042246;28;45306;-71
2023/05/05 07:22:55;;;;;;;2.45;1.40;;;19.00;63.30;;;;;;5042229;28;47098;-71
2023/05/05 07:25:22;;;;;;;3.10;1.83;;;19.00;63.50;;;;;;5041774;28;46122;-72
2023/05/05 07:27:49;;;;;;;1.77;1.52;;;19.00;63.40;;;;;;5042171;28;45317;-71
2023/05/05 07:30:16;;;;;;;1.95;1.40;;;19.00;63.30;;;;;;5042166;28;45497;-71
2023/05/05 07:32:43;;;;;;;2.47;1.65;;;19.00;63.20;;;;;;5042273;28;47552;-71
2023/05/05 07:35:10;;;;;;;2.08;1.52;;;19.00;63.10;;;;;;5042051;28;45269;-71
2023/05/05 07:37:36;;;;;;;2.40;1.55;;;19.00;62.70;;;;;;5042331;28;45175;-71
2023/05/05 07:40:06;;;;;;;2.30;1.60;;;19.00;62.90;;;;;;5042252;28;45550;-71
2023/05/05 07:42:32;;;;;;;2.55;1.70;;;19.00;62.90;;;;;;5042059;28;46778;-71
2023/05/05 07:44:59;;;;;;;2.35;1.45;;;19.00;63.00;;;;;;5041785;28;45410;-71
2023/05/05 07:47:26;;;;;;;3.17;1.83;;;19.10;63.30;;;;;;5040922;28;45160;-71
2023/05/05 07:49:53;;;;;;;2.60;1.70;;;19.00;63.50;;;;;;5041915;28;45577;-71
2023/05/05 07:52:20;;;;;;;1.73;1.50;;;19.00;63.50;;;;;;5041972;28;45357;-71
2023/05/05 07:54:47;;;;;;;2.45;1.75;;;19.00;63.50;;;;;;5040687;28;45343;-71
2023/05/05 07:57:15;;;;;;;3.38;1.90;;;19.00;63.60;;;;;;5042045;28;45339;-71
2023/05/05 07:59:42;;;;;;;2.00;1.77;;;19.00;63.60;;;;;;5041968;28;45273;-71
2023/05/05 08:02:11;;;;;;;2.22;1.70;;;19.00;63.80;;;;;;5038711;28;46560;-71
2023/05/05 08:04:38;;;;;;;1.52;1.42;;;19.00;63.70;;;;;;5042155;27;45356;-72
2023/05/05 08:07:04;;;;;;;1.67;1.38;;;19.00;63.80;;;;;;5041766;28;45388;-71
2023/05/05 08:09:31;;;;;;;2.40;1.55;;;19.00;63.80;;;;;;5041847;28;45261;-71
2023/05/05 08:11:58;;;;;;;2.78;1.60;;;19.00;63.60;;;;;;5041760;28;45314;-72
2023/05/05 08:14:26;;;;;;;2.72;1.70;;;19.00;63.50;;;;;;5041355;28;45260;-71
2023/05/05 08:16:53;;;;;;;3.42;1.50;;;19.00;63.40;;;;;;5041375;27;45185;-71
2023/05/05 08:19:19;;;;;;;1.83;1.25;;;19.00;63.40;;;;;;5041406;28;45576;-71
2023/05/05 08:21:46;;;;;;;1.85;1.17;;;19.10;63.40;;;;;;5041563;28;47610;-71
2023/05/05 08:24:13;;;;;;;1.77;1.40;;;19.10;63.30;;;;;;5041225;28;45408;-72
2023/05/05 08:26:40;;;;;;;1.63;1.30;;;19.10;63.40;;;;;;5040810;28;45416;-71
2023/05/05 08:29:07;;;;;;;1.50;1.20;;;19.10;63.20;;;;;;5041268;28;45534;-72
2023/05/05 08:31:36;;;;;;;1.35;1.25;;;19.10;63.30;;;;;;5040960;28;48036;-71
2023/05/05 08:34:04;;;;;;;1.83;1.40;;;19.10;63.40;;;;;;5041359;28;45538;-72
2023/05/05 08:36:31;;;;;;;1.98;1.10;;;19.10;63.40;;;;;;5041024;28;45291;-71
2023/05/05 08:38:58;;;;;;;1.83;1.15;;;19.10;63.50;;;;;;5041321;28;45402;-71
2023/05/05 08:41:25;;;;;;;1.48;1.00;;;19.10;63.60;;;;;;5040825;28;47045;-71
2023/05/05 08:43:52;;;;;;;1.60;0.90;;;19.10;63.60;;;;;;5041468;28;45327;-71
2023/05/05 08:46:19;;;;;;;1.88;1.10;;;19.00;63.50;;;;;;5040557;28;45327;-71
2023/05/05 08:48:48;;;;;;;1.05;0.93;;;19.00;63.50;;;;;;5041087;28;45333;-71
2023/05/05 08:51:18;;;;;;;1.30;1.20;;;19.10;63.80;;;;;;5039996;28;47251;-71
2023/05/05 08:53:51;;;;;;;1.92;1.08;;;19.10;63.70;;;;;;5040683;28;45419;-71
2023/05/05 08:56:20;;;;;;;1.88;1.00;;;19.10;63.70;;;;;;5038075;28;45314;-71
2023/05/05 08:58:47;;;;;;;1.00;0.90;;;19.10;63.60;;;;;;5041092;27;45385;-71
2023/05/05 09:01:15;;;;;;;1.60;1.00;;;19.10;63.40;;;;;;5037570;28;45346;-71
2023/05/05 09:03:42;;;;;;;1.00;0.90;;;19.10;63.30;;;;;;5040875;28;46459;-71
2023/05/05 09:06:10;;;;;;;2.55;1.00;;;19.10;63.20;;;;;;5042663;28;45341;-71
2023/05/05 09:08:38;;;;;;;1.48;0.90;;;19.10;63.20;;;;;;5043910;27;45239;-71
2023/05/05 09:11:05;;;;;;;1.30;1.02;;;19.10;63.00;;;;;;5043712;28;46623;-71
2023/05/05 09:13:32;;;;;;;0.80;0.80;;;19.10;63.10;;;;;;5043172;28;45294;-71
2023/05/05 09:15:59;;;;;;;1.17;0.90;;;19.10;63.10;;;;;;5043585;28;45350;-71
2023/05/05 09:18:26;;;;;;;1.63;0.88;;;19.10;63.30;;;;;;5043928;28;45308;-71
2023/05/05 09:20:53;;;;;;;1.92;1.20;;;19.10;63.40;;;;;;5043572;28;47778;-71
2023/05/05 09:23:21;;;;;;;1.45;1.10;;;19.10;63.30;;;;;;5043228;28;45796;-72
2023/05/05 09:26:03;;;;;;;1.30;1.10;;;19.10;64.60;;;;;;5043391;28;45299;-71
2023/05/05 09:28:29;;;;;;;1.27;1.13;;;19.10;63.50;;;;;;5043427;28;45182;-71
2023/05/05 09:31:11;;;;;;;1.23;0.80;;;19.10;63.50;;;;;;5043447;28;48876;-71
2023/05/05 09:33:38;;;;;;;1.75;0.95;;;19.10;63.40;;;;;;5043234;28;46813;-71
2023/05/05 09:36:05;;;;;;;1.27;0.90;;;19.10;63.50;;;;;;5043890;28;45212;-71
2023/05/05 09:38:35;;;;;;;1.08;0.88;;;19.10;63.50;;;;;;5043540;28;45249;-71
2023/05/05 09:41:04;;;;;;;1.20;0.90;;;19.10;63.40;;;;;;5043204;28;48228;-71
2023/05/05 09:43:48;;;;;;;1.17;0.70;;;19.10;63.40;;;;;;5043108;28;45259;-71
2023/05/05 09:46:15;;;;;;;0.73;0.70;;;19.10;63.50;;;;;;5042838;28;45258;-70
2023/05/05 09:48:42;;;;;;;0.90;0.80;;;19.10;63.20;;;;;;5043667;28;45367;-71
2023/05/05 09:51:09;;;;;;;1.50;1.02;;;19.10;63.20;;;;;;5041696;28;46073;-71
2023/05/05 09:53:41;;;;;;;1.35;0.80;;;19.10;63.00;;;;;;5043306;28;45402;-71
2023/05/05 09:56:09;;;;;;;1.73;0.93;;;19.10;63.00;;;;;;5043490;28;45304;-71
2023/05/05 09:58:35;;;;;;;1.08;0.80;;;19.10;62.90;;;;;;5023601;28;45228;-71
2023/05/05 10:01:02;;;;;;;1.00;0.90;;;19.10;63.30;;;;;;5038884;28;47664;-71
2023/05/05 10:03:29;;;;;;;2.15;1.00;;;19.10;63.40;;;;;;5041208;28;45350;-71
2023/05/05 10:05:58;;;;;;;1.70;0.75;;;19.10;63.50;;;;;;5042967;28;45305;-71
2023/05/05 10:08:26;;;;;;;0.88;0.60;;;19.10;63.50;;;;;;5043100;28;45393;-71
2023/05/05 10:10:58;;;;;;;1.48;0.85;;;19.10;63.40;;;;;;5042933;28;45474;-71
2023/05/05 10:13:25;;;;;;;1.38;0.90;;;19.10;63.50;;;;;;5042980;28;45559;-71
2023/05/05 10:15:53;;;;;;;1.05;0.95;;;19.10;63.60;;;;;;5042356;28;45411;-71
2023/05/05 10:18:22;;;;;;;1.42;1.20;;;19.10;63.60;;;;;;5042549;28;45141;-71
2023/05/05 10:20:55;;;;;;;0.80;0.70;;;19.10;63.60;;;;;;5042677;27;46327;-71
2023/05/05 10:23:23;;;;;;;0.80;0.80;;;19.10;63.50;;;;;;5039958;28;45211;-71
2023/05/05 10:25:57;;;;;;;1.13;0.75;;;19.10;63.30;;;;;;5042580;28;45502;-71
2023/05/05 10:28:32;;;;;;;1.58;0.95;;;19.10;63.30;;;;;;5042881;28;45328;-71
2023/05/05 10:31:02;;;;;;;1.40;0.93;;;19.10;63.10;;;;;;5041957;27;45376;-71
2023/05/05 10:33:48;;;;;;;1.65;0.80;;;19.10;63.30;;;;;;5042566;28;45339;-71
2023/05/05 10:36:16;;;;;;;0.80;0.80;;;19.10;63.50;;;;;;5042924;28;45349;-70
2023/05/05 10:38:45;;;;;;;1.20;1.00;;;19.20;63.30;;;;;;5042747;28;45141;-71
2023/05/05 10:41:14;;;;;;;0.90;0.80;;;19.20;63.30;;;;;;5042504;27;45385;-72
2023/05/05 10:43:42;;;;;;;1.20;0.80;;;19.20;63.20;;;;;;5042409;28;45289;-71
2023/05/05 10:46:09;;;;;;;0.80;0.70;;;19.10;63.10;;;;;;5042040;28;45197;-71
2023/05/05 10:48:40;;;;;;;1.15;0.80;;;19.10;63.30;;;;;;5041168;28;45353;-71
2023/05/05 10:51:21;;;;;;;0.60;0.60;;;19.10;63.30;;;;;;5040777;28;45323;-71
2023/05/05 10:53:56;;;;;;;1.05;0.63;;;19.10;63.50;;;;;;5042444;28;45429;-71
2023/05/05 10:56:31;;;;;;;0.60;0.60;;;19.10;63.50;;;;;;5042157;28;45507;-73
2023/05/05 10:58:58;;;;;;;1.08;0.98;;;19.10;63.50;;;;;;5042453;28;45489;-71
2023/05/05 11:01:30;;;;;;;0.98;0.80;;;19.10;63.60;;;;;;5042112;28;46416;-71
2023/05/05 11:04:16;;;;;;;1.23;0.70;;;19.10;63.70;;;;;;5040474;28;45479;-71
2023/05/05 11:07:16;;;;;;;1.85;0.90;;;19.10;63.70;;;;;;5042452;28;45324;-72
2023/05/05 11:09:55;;;;;;;1.10;0.90;;;19.10;63.50;;;;;;5042520;28;45273;-71
2023/05/05 11:12:23;;;;;;;1.33;0.80;;;19.10;63.60;;;;;;5042335;28;47331;-71
2023/05/05 11:15:23;;;;;;;0.75;0.70;;;19.10;63.60;;;;;;5041777;28;46102;-71
2023/05/05 11:17:50;;;;;;;0.77;0.70;;;19.20;63.60;;;;;;5035951;28;45296;-71
2023/05/05 11:20:17;;;;;;;1.13;0.80;;;19.20;63.60;;;;;;5042257;27;45431;-71
2023/05/05 11:23:23;;;;;;;1.13;0.80;;;19.20;63.40;;;;;;5042074;27;45399;-71
2023/05/05 11:25:50;;;;;;;0.80;0.68;;;19.20;63.50;;;;;;4991463;28;45320;-71
2023/05/05 11:28:20;;;;;;;1.27;0.70;;;19.20;63.70;;;;;;5041534;28;45427;-71
2023/05/05 11:31:20;;;;;;;1.40;0.85;;;19.20;63.90;;;;;;5042237;28;45409;-71
2023/05/05 11:33:47;;;;;;;0.85;0.65;;;19.20;64.20;;;;;;5041724;28;46269;-71
2023/05/05 11:36:15;;;;;;;0.70;0.70;;;19.20;64.30;;;;;;5041683;28;45217;-71
2023/05/05 11:38:55;;;;;;;0.88;0.70;;;19.10;64.40;;;;;;5041998;28;45296;-71
2023/05/05 11:41:34;;;;;;;1.27;0.80;;;19.10;64.30;;;;;;5042533;28;45390;-72
2023/05/05 11:44:13;;;;;;;0.70;0.60;;;19.10;64.30;;;;;;5041495;28;48167;-71
2023/05/05 11:46:40;;;;;;;1.05;0.82;;;19.10;64.40;;;;;;5040951;28;45296;-71
2023/05/05 11:49:08;;;;;;;0.70;0.70;;;19.10;64.30;;;;;;5041942;28;45274;-71
2023/05/05 11:51:36;;;;;;;1.00;0.73;;;19.10;64.30;;;;;;5039705;28;45389;-71
2023/05/05 11:54:03;;;;;;;0.75;0.50;;;19.10;64.30;;;;;;5041530;28;48649;-71
2023/05/05 11:56:29;;;;;;;0.55;0.55;;;19.10;64.30;;;;;;5041541;28;46168;-71
2023/05/05 11:59:08;;;;;;;1.08;0.68;;;19.10;64.30;;;;;;5041881;28;45133;-71
2023/05/05 12:01:40;;;;;;;1.05;0.60;;;19.20;64.30;;;;;;5041920;28;45583;-71
2023/05/05 12:04:07;;;;;;;1.02;0.57;;;19.10;64.20;;;;;;5041673;27;46527;-71
2023/05/05 12:06:33;;;;;;;0.77;0.77;;;19.20;64.10;;;;;;5041706;28;45454;-71
2023/05/05 12:09:00;;;;;;;0.82;0.63;;;19.20;64.10;;;;;;5042089;28;45331;-71
2023/05/05 12:11:27;;;;;;;2.45;0.70;;;19.20;64.40;;;;;;5041917;28;45286;-71
2023/05/05 12:14:10;;;;;;;1.02;0.60;;;19.20;64.60;;;;;;5041192;28;47022;-71
2023/05/05 12:16:38;;;;;;;1.13;0.75;;;19.20;64.70;;;;;;5025156;28;45331;-71
2023/05/05 12:19:06;;;;;;;1.48;0.80;;;19.20;64.60;;;;;;5041850;28;45223;-71
2023/05/05 12:21:33;;;;;;;0.90;0.80;;;19.10;64.60;;;;;;5041745;28;45354;-71
2023/05/05 12:24:00;;;;;;;1.40;0.85;;;19.10;64.50;;;;;;5040865;28;48102;-71
2023/05/05 12:26:29;;;;;;;1.00;0.70;;;19.20;65.70;;;;;;5041008;28;45268;-72
2023/05/05 12:28:56;;;;;;;0.90;0.60;;;19.10;64.70;;;;;;5041535;28;45391;-72
2023/05/05 12:31:33;;;;;;;1.13;0.77;;;19.10;64.50;;;;;;5041397;28;45326;-72
2023/05/05 12:34:02;;;;;;;2.55;0.80;;;19.20;64.70;;;;;;5040831;27;45455;-71
2023/05/05 12:36:29;;;;;;;0.68;0.60;;;19.10;64.40;;;;;;5040558;28;45332;-71
2023/05/05 12:38:56;;;;;;;0.90;0.63;;;19.10;64.20;;;;;;5041154;28;45185;-72
2023/05/05 12:41:23;;;;;;;0.70;0.50;;;19.10;64.10;;;;;;5041105;28;45191;-71
2023/05/05 12:43:55;;;;;;;0.65;0.50;;;19.10;63.70;;;;;;5040694;28;47980;-71
2023/05/05 12:46:22;;;;;;;0.75;0.60;;;19.20;63.70;;;;;;5040300;28;45588;-71
2023/05/05 12:49:03;;;;;;;0.65;0.63;;;19.20;63.60;;;;;;5040255;28;45296;-71
2023/05/05 12:51:31;;;;;;;0.75;0.50;;;19.20;63.60;;;;;;5039305;28;45322;-71
2023/05/05 12:54:03;;;;;;;0.77;0.50;;;19.20;63.60;;;;;;5040830;28;47484;-72
2023/05/05 12:56:34;;;;;;;1.85;0.70;;;19.20;63.60;;;;;;5040715;28;45214;-71
2023/05/05 12:59:02;;;;;;;0.65;0.40;;;19.20;63.60;;;;;;5040898;28;45213;-71